createdAt,value
2019-05-02T00:00:51.888Z,2
2019-05-02T00:01:51.970Z,2
2019-05-02T00:02:51.897Z,2
2019-05-02T00:03:51.856Z,2
2019-05-02T00:04:55.886Z,2
2019-05-02T00:05:51.884Z,2
2019-05-02T00:06:51.902Z,2
2019-05-02T00:07:53.874Z,2
2019-05-02T00:08:51.897Z,2
2019-05-02T00:09:51.941Z,2
2019-05-02T00:10:52.872Z,2
2019-05-02T00:11:58.469Z,2
2019-05-02T00:12:51.847Z,2
2019-05-02T00:13:51.848Z,2
2019-05-02T00:14:56.471Z,2
2019-05-02T00:15:51.853Z,2
2019-05-02T00:16:51.847Z,2
2019-05-02T00:17:52.165Z,2
2019-05-02T00:18:51.847Z,2
2019-05-02T00:19:51.972Z,2
2019-05-02T00:20:52.012Z,2
2019-05-02T00:21:51.885Z,2
2019-05-02T00:22:52.498Z,2
2019-05-02T00:23:51.904Z,2
2019-05-02T00:24:51.850Z,2
2019-05-02T00:25:52.626Z,2
2019-05-02T00:26:55.980Z,2
2019-05-02T00:27:51.871Z,2
2019-05-02T00:28:51.852Z,2
2019-05-02T00:29:53.800Z,2
2019-05-02T00:30:51.890Z,2
2019-05-02T00:31:51.844Z,2
2019-05-02T00:32:53.249Z,2
2019-05-02T00:33:52.215Z,2
2019-05-02T00:34:51.931Z,2
2019-05-02T00:35:51.902Z,2
2019-05-02T00:36:51.851Z,2
2019-05-02T00:37:51.905Z,2
2019-05-02T00:38:51.919Z,2
2019-05-02T00:39:51.894Z,2
2019-05-02T00:40:51.900Z,2
2019-05-02T00:41:51.864Z,2
2019-05-02T00:42:53.390Z,2
2019-05-02T00:43:51.847Z,2
2019-05-02T00:44:51.954Z,2
2019-05-02T00:45:55.087Z,2
2019-05-02T00:46:51.888Z,2
2019-05-02T00:47:51.848Z,2
2019-05-02T00:48:54.117Z,2
2019-05-02T00:49:51.954Z,2
2019-05-02T00:50:52.468Z,2
2019-05-02T00:51:52.195Z,2
2019-05-02T00:52:51.909Z,2
2019-05-02T00:53:51.885Z,2
2019-05-02T00:54:54.979Z,2
2019-05-02T00:55:51.846Z,2
2019-05-02T00:56:51.871Z,2
2019-05-02T00:57:55.768Z,2
2019-05-02T00:58:51.885Z,2
2019-05-02T00:59:51.869Z,2
2019-05-02T01:00:53.117Z,2
2019-05-02T01:01:51.872Z,2
2019-05-02T01:02:51.889Z,2
2019-05-02T01:03:53.545Z,2
2019-05-02T01:04:51.851Z,2
2019-05-02T01:05:51.875Z,2
2019-05-02T01:06:52.004Z,2
2019-05-02T01:07:56.066Z,2
2019-05-02T01:08:51.847Z,2
2019-05-02T01:09:51.953Z,2
2019-05-02T01:10:52.205Z,2
2019-05-02T01:11:51.952Z,2
2019-05-02T01:12:51.845Z,2
2019-05-02T01:13:55.733Z,2
2019-05-02T01:14:51.917Z,2
2019-05-02T01:15:51.845Z,2
2019-05-02T01:16:54.316Z,2
2019-05-02T01:17:51.905Z,2
2019-05-02T01:18:51.848Z,2
2019-05-02T01:19:52.696Z,2
2019-05-02T01:20:52.140Z,2
2019-05-02T01:21:51.839Z,2
2019-05-02T01:22:52.439Z,2
2019-05-02T01:23:51.850Z,2
2019-05-02T01:24:51.911Z,2
2019-05-02T01:25:52.766Z,2
2019-05-02T01:26:51.844Z,2
2019-05-02T01:27:51.842Z,2
2019-05-02T01:28:54.279Z,2
2019-05-02T01:29:51.890Z,2
2019-05-02T01:30:51.853Z,2
2019-05-02T01:31:54.644Z,2
2019-05-02T01:32:51.888Z,2
2019-05-02T01:33:51.844Z,2
2019-05-02T01:34:54.341Z,2
2019-05-02T01:35:51.909Z,2
2019-05-02T01:36:51.863Z,2
2019-05-02T01:37:54.906Z,2
2019-05-02T01:38:51.841Z,2
2019-05-02T01:39:51.917Z,2
2019-05-02T01:40:53.264Z,2
2019-05-02T01:41:51.845Z,2
2019-05-02T01:42:51.894Z,2
2019-05-02T01:43:54.936Z,2
2019-05-02T01:44:51.863Z,2
2019-05-02T01:45:51.963Z,2
2019-05-02T01:46:53.950Z,2
2019-05-02T01:47:51.877Z,2
2019-05-02T01:48:51.895Z,2
2019-05-02T01:49:56.711Z,2
2019-05-02T01:50:51.943Z,2
2019-05-02T01:51:51.867Z,2
2019-05-02T01:52:53.648Z,2
2019-05-02T01:53:51.858Z,2
2019-05-02T01:54:51.858Z,2
2019-05-02T01:55:56.868Z,2
2019-05-02T01:56:51.868Z,2
2019-05-02T01:57:51.891Z,2
2019-05-02T01:58:52.952Z,2
2019-05-02T01:59:51.890Z,2
2019-05-02T02:00:51.970Z,2
2019-05-02T02:01:53.160Z,2
2019-05-02T02:02:51.943Z,2
2019-05-02T02:03:51.846Z,2
2019-05-02T02:04:52.088Z,2
2019-05-02T02:05:51.900Z,2
2019-05-02T02:06:51.894Z,2
2019-05-02T02:07:55.563Z,2
2019-05-02T02:08:51.865Z,2
2019-05-02T02:09:51.910Z,2
2019-05-02T02:10:56.484Z,2
2019-05-02T02:11:51.864Z,2
2019-05-02T02:13:03.196Z,2
2019-05-02T02:13:51.853Z,2
2019-05-02T02:14:53.473Z,2
2019-05-02T02:15:51.863Z,2
2019-05-02T02:16:52.250Z,2
2019-05-02T02:17:52.676Z,2
2019-05-02T02:18:51.896Z,2
2019-05-02T02:19:52.138Z,2
2019-05-02T02:20:51.982Z,2
2019-05-02T02:21:51.842Z,2
2019-05-02T02:22:52.160Z,2
2019-05-02T02:23:51.890Z,2
2019-05-02T02:24:55.946Z,2
2019-05-02T02:25:51.866Z,2
2019-05-02T02:26:51.860Z,2
2019-05-02T02:27:54.933Z,2
2019-05-02T02:28:51.844Z,2
2019-05-02T02:29:51.910Z,2
2019-05-02T02:30:58.062Z,2
2019-05-02T02:31:51.867Z,2
2019-05-02T02:33:52.219Z,2
2019-05-02T02:34:51.965Z,2
2019-05-02T02:35:52.168Z,2
2019-05-02T02:36:51.906Z,2
2019-05-02T02:37:53.083Z,2
2019-05-02T02:38:51.848Z,2
2019-05-02T02:39:53.974Z,2
2019-05-02T02:40:51.873Z,2
2019-05-02T02:41:54.034Z,2
2019-05-02T02:42:51.858Z,2
2019-05-02T02:43:54.648Z,2
2019-05-02T02:44:52.212Z,2
2019-05-02T02:46:51.857Z,2
2019-05-02T02:47:53.027Z,2
2019-05-02T02:48:51.908Z,2
2019-05-02T02:49:55.859Z,2
2019-05-02T02:50:51.869Z,2
2019-05-02T02:51:58.016Z,2
2019-05-02T02:52:51.911Z,2
2019-05-02T02:54:03.040Z,2
2019-05-02T02:54:51.871Z,2
2019-05-02T02:56:01.148Z,2
2019-05-02T02:56:51.842Z,2
2019-05-02T02:57:51.971Z,2
2019-05-02T02:58:51.884Z,2
2019-05-02T02:59:51.920Z,2
2019-05-02T03:00:51.852Z,2
2019-05-02T03:01:52.126Z,2
2019-05-02T03:02:51.906Z,2
2019-05-02T03:03:51.845Z,2
2019-05-02T03:04:51.853Z,2
2019-05-02T03:05:51.847Z,2
2019-05-02T03:06:51.847Z,2
2019-05-02T03:07:51.906Z,2
2019-05-02T03:08:51.853Z,2
2019-05-02T03:09:51.847Z,2
2019-05-02T03:10:51.894Z,2
2019-05-02T03:11:56.261Z,3
2019-05-02T03:12:51.921Z,2
2019-05-02T03:13:53.398Z,2
2019-05-02T03:14:51.868Z,2
2019-05-02T03:15:51.889Z,2
2019-05-02T03:16:51.845Z,2
2019-05-02T03:17:51.890Z,2
2019-05-02T03:18:52.147Z,2
2019-05-02T03:19:54.481Z,2
2019-05-02T03:20:51.875Z,2
2019-05-02T03:21:54.406Z,2
2019-05-02T03:22:51.928Z,2
2019-05-02T03:24:01.576Z,2
2019-05-02T03:24:51.851Z,2
2019-05-02T03:25:51.896Z,2
2019-05-02T03:26:55.389Z,2
2019-05-02T03:27:51.847Z,2
2019-05-02T03:28:58.668Z,2
2019-05-02T03:29:51.855Z,2
2019-05-02T03:30:52.264Z,2
2019-05-02T03:32:11.738Z,2
2019-05-02T03:33:06.361Z,2
2019-05-02T03:33:55.805Z,2
2019-05-02T03:34:53.715Z,2
2019-05-02T03:35:51.967Z,2
2019-05-02T03:36:51.884Z,2
2019-05-02T03:37:53.103Z,2
2019-05-02T03:38:51.846Z,2
2019-05-02T03:39:57.579Z,2
2019-05-02T03:40:51.932Z,2
2019-05-02T03:41:55.550Z,2
2019-05-02T03:42:51.970Z,2
2019-05-02T03:44:09.457Z,2
2019-05-02T03:44:57.001Z,2
2019-05-02T03:45:51.862Z,2
2019-05-02T03:46:54.179Z,2
2019-05-02T03:47:51.851Z,2
2019-05-02T03:48:51.867Z,2
2019-05-02T03:49:52.255Z,2
2019-05-02T03:50:51.896Z,2
2019-05-02T03:51:56.179Z,2
2019-05-02T03:52:51.845Z,2
2019-05-02T03:53:51.894Z,2
2019-05-02T03:54:52.382Z,2
2019-05-02T03:55:51.846Z,2
2019-05-02T03:56:53.416Z,2
2019-05-02T03:57:51.840Z,2
2019-05-02T03:58:56.471Z,2
2019-05-02T03:59:51.843Z,2
2019-05-02T04:01:00.338Z,2
2019-05-02T04:01:51.897Z,2
2019-05-02T04:02:59.124Z,2
2019-05-02T04:03:51.891Z,2
2019-05-02T04:04:54.239Z,2
2019-05-02T04:05:51.837Z,2
2019-05-02T04:08:58.675Z,2
2019-05-02T04:09:51.842Z,2
2019-05-02T04:10:58.578Z,2
2019-05-02T04:11:51.963Z,2
2019-05-02T04:12:53.245Z,2
2019-05-02T04:13:51.981Z,2
2019-05-02T04:14:55.323Z,2
2019-05-02T04:15:52.329Z,2
2019-05-02T04:16:55.241Z,2
2019-05-02T04:17:52.016Z,2
2019-05-02T04:18:55.598Z,2
2019-05-02T04:19:52.098Z,2
2019-05-02T04:20:52.147Z,2
2019-05-02T04:21:54.862Z,2
2019-05-02T04:22:52.000Z,2
2019-05-02T04:23:52.002Z,2
2019-05-02T04:24:56.402Z,2
2019-05-02T04:25:52.000Z,2
2019-05-02T04:26:55.974Z,2
2019-05-02T04:27:52.009Z,2
2019-05-02T04:28:52.251Z,2
2019-05-02T04:29:51.871Z,2
2019-05-02T04:30:53.939Z,2
2019-05-02T04:31:51.906Z,2
2019-05-02T04:32:55.763Z,2
2019-05-02T04:33:51.906Z,2
2019-05-02T04:34:55.090Z,2
2019-05-02T04:35:51.852Z,2
2019-05-02T04:36:59.876Z,2
2019-05-02T04:37:51.913Z,2
2019-05-02T04:38:52.900Z,2
2019-05-02T04:39:53.681Z,2
2019-05-02T04:40:51.852Z,2
2019-05-02T04:41:51.844Z,2
2019-05-02T04:43:57.607Z,2
2019-05-02T04:45:11.668Z,2
2019-05-02T04:45:56.409Z,2
2019-05-02T04:46:51.936Z,2
2019-05-02T04:47:58.491Z,2
2019-05-02T04:48:52.831Z,2
2019-05-02T04:49:52.275Z,2
2019-05-02T04:50:52.155Z,2
2019-05-02T04:52:04.678Z,2
2019-05-02T04:52:53.779Z,2
2019-05-02T04:53:51.909Z,2
2019-05-02T04:54:51.843Z,2
2019-05-02T04:56:01.566Z,2
2019-05-02T04:56:55.114Z,2
2019-05-02T04:57:51.961Z,2
2019-05-02T04:58:51.854Z,2
2019-05-02T05:00:02.452Z,2
2019-05-02T05:00:58.075Z,2
2019-05-02T05:01:57.398Z,2
2019-05-02T05:02:53.290Z,2
2019-05-02T05:03:58.586Z,2
2019-05-02T05:04:51.849Z,2
2019-05-02T05:05:51.894Z,2
2019-05-02T05:06:55.866Z,2
2019-05-02T05:07:51.930Z,2
2019-05-02T05:08:51.878Z,2
2019-05-02T05:09:58.216Z,2
2019-05-02T05:10:51.859Z,2
2019-05-02T05:11:53.895Z,2
2019-05-02T05:12:51.931Z,2
2019-05-02T05:13:56.510Z,2
2019-05-02T05:14:51.863Z,2
2019-05-02T05:15:52.131Z,2
2019-05-02T05:16:55.661Z,2
2019-05-02T05:17:51.933Z,2
2019-05-02T05:18:53.285Z,2
2019-05-02T05:19:51.862Z,2
2019-05-02T05:20:52.851Z,2
2019-05-02T05:21:58.798Z,3
2019-05-02T05:22:52.471Z,3
2019-05-02T05:23:56.308Z,2
2019-05-02T05:24:51.874Z,2
2019-05-02T05:25:55.765Z,2
2019-05-02T05:26:51.962Z,3
2019-05-02T05:27:52.541Z,3
2019-05-02T05:28:52.424Z,3
2019-05-02T05:29:53.684Z,2
2019-05-02T05:30:52.409Z,2
2019-05-02T05:31:55.200Z,3
2019-05-02T05:32:52.061Z,2
2019-05-02T05:33:52.091Z,2
2019-05-02T05:34:52.142Z,2
2019-05-02T05:35:52.735Z,2
2019-05-02T05:36:52.118Z,2
2019-05-02T05:37:53.009Z,2
2019-05-02T05:38:52.066Z,2
2019-05-02T05:39:52.709Z,2
2019-05-02T05:40:52.181Z,2
2019-05-02T05:41:52.531Z,2
2019-05-02T05:42:52.021Z,2
2019-05-02T05:43:53.628Z,2
2019-05-02T05:44:51.907Z,2
2019-05-02T05:45:56.644Z,2
2019-05-02T05:46:51.906Z,2
2019-05-02T05:47:56.759Z,2
2019-05-02T05:48:51.847Z,3
2019-05-02T05:49:52.265Z,3
2019-05-02T05:50:51.848Z,3
2019-05-02T05:51:54.328Z,6
2019-05-02T05:52:52.071Z,4
2019-05-02T05:53:52.348Z,3
2019-05-02T05:54:51.847Z,4
2019-05-02T05:55:53.516Z,4
2019-05-02T05:56:51.949Z,6
2019-05-02T05:57:59.949Z,7
2019-05-02T05:58:52.614Z,6
2019-05-02T05:59:52.020Z,7
2019-05-02T06:00:55.436Z,6
2019-05-02T06:01:51.806Z,6
2019-05-02T06:02:56.252Z,6
2019-05-02T06:03:51.855Z,4
2019-05-02T06:04:55.246Z,6
2019-05-02T06:05:51.837Z,8
2019-05-02T06:06:54.007Z,5
2019-05-02T06:07:51.836Z,4
2019-05-02T06:08:54.036Z,6
2019-05-02T06:10:51.803Z,4
2019-05-02T06:11:55.433Z,6
2019-05-02T06:12:51.866Z,5
2019-05-02T06:13:51.912Z,5
2019-05-02T06:14:56.287Z,5
2019-05-02T06:16:01.937Z,5
2019-05-02T06:16:53.180Z,4
2019-05-02T06:17:52.594Z,6
2019-05-02T06:18:52.095Z,5
2019-05-02T06:19:53.600Z,7
2019-05-02T06:20:51.852Z,7
2019-05-02T06:21:51.862Z,7
2019-05-02T06:22:54.922Z,6
2019-05-02T06:23:52.448Z,4
2019-05-02T06:24:52.770Z,4
2019-05-02T06:25:52.821Z,4
2019-05-02T06:26:52.053Z,3
2019-05-02T06:27:51.806Z,3
2019-05-02T06:28:51.833Z,4
2019-05-02T06:29:56.095Z,6
2019-05-02T06:30:52.000Z,5
2019-05-02T06:31:51.858Z,5
2019-05-02T06:32:54.980Z,5
2019-05-02T06:33:51.817Z,5
2019-05-02T06:34:51.807Z,5
2019-05-02T06:36:00.319Z,6
2019-05-02T06:36:51.809Z,5
2019-05-02T06:37:52.105Z,5
2019-05-02T06:38:52.182Z,5
2019-05-02T06:39:51.809Z,6
2019-05-02T06:40:51.943Z,6
2019-05-02T06:41:56.761Z,6
2019-05-02T06:42:52.898Z,6
2019-05-02T06:43:51.882Z,6
2019-05-02T06:44:54.998Z,7
2019-05-02T06:45:54.168Z,6
2019-05-02T06:46:51.881Z,5
2019-05-02T06:47:51.985Z,7
2019-05-02T06:48:52.511Z,7
2019-05-02T06:49:56.059Z,7
2019-05-02T06:50:51.928Z,6
2019-05-02T06:51:56.172Z,6
2019-05-02T06:52:51.891Z,6
2019-05-02T06:53:52.290Z,7
2019-05-02T06:54:57.969Z,6
2019-05-02T06:55:52.016Z,6
2019-05-02T06:56:51.873Z,5
2019-05-02T06:57:51.928Z,6
2019-05-02T06:58:51.882Z,6
2019-05-02T06:59:54.642Z,7
2019-05-02T07:00:58.165Z,5
2019-05-02T07:01:56.816Z,6
2019-05-02T07:02:52.771Z,7
2019-05-02T07:03:52.745Z,6
2019-05-02T07:04:54.776Z,6
2019-05-02T07:05:51.920Z,6
2019-05-02T07:06:58.787Z,6
2019-05-02T07:07:52.109Z,6
2019-05-02T07:08:51.909Z,7
2019-05-02T07:09:51.884Z,7
2019-05-02T07:10:56.131Z,7
2019-05-02T07:11:57.812Z,7
2019-05-02T07:13:09.216Z,7
2019-05-02T07:13:51.887Z,6
2019-05-02T07:14:56.122Z,6
2019-05-02T07:15:51.953Z,6
2019-05-02T07:16:54.560Z,6
2019-05-02T07:17:52.365Z,7
2019-05-02T07:18:52.783Z,7
2019-05-02T07:19:52.535Z,7
2019-05-02T07:20:51.936Z,7
2019-05-02T07:21:53.206Z,7
2019-05-02T07:22:51.896Z,6
2019-05-02T07:23:53.769Z,6
2019-05-02T07:24:52.428Z,6
2019-05-02T07:25:51.960Z,6
2019-05-02T07:26:52.269Z,6
2019-05-02T07:27:52.649Z,8
2019-05-02T07:28:51.927Z,8
2019-05-02T07:29:57.135Z,8
2019-05-02T07:30:54.487Z,7
2019-05-02T07:31:53.533Z,6
2019-05-02T07:32:51.908Z,4
2019-05-02T07:33:51.888Z,4
2019-05-02T07:34:51.890Z,3
2019-05-02T07:35:55.183Z,3
2019-05-02T07:36:51.946Z,3
2019-05-02T07:37:51.885Z,3
2019-05-02T07:38:51.916Z,2
2019-05-02T07:39:51.918Z,3
2019-05-02T07:40:52.971Z,4
2019-05-02T07:41:51.920Z,4
2019-05-02T07:42:51.884Z,4
2019-05-02T07:43:55.887Z,4
2019-05-02T07:44:51.914Z,4
2019-05-02T07:45:51.889Z,4
2019-05-02T07:46:52.356Z,5
2019-05-02T07:47:51.887Z,5
2019-05-02T07:48:54.566Z,6
2019-05-02T07:49:53.487Z,4
2019-05-02T07:50:52.395Z,3
2019-05-02T07:51:52.449Z,4
2019-05-02T07:52:51.935Z,4
2019-05-02T07:53:51.893Z,4
2019-05-02T07:54:56.193Z,4
2019-05-02T07:55:51.864Z,4
2019-05-02T07:56:53.447Z,3
2019-05-02T07:57:51.973Z,4
2019-05-02T07:58:51.875Z,4
2019-05-02T07:59:55.066Z,5
2019-05-02T08:00:51.864Z,5
2019-05-02T08:01:51.932Z,5
2019-05-02T08:02:51.939Z,7
2019-05-02T08:03:51.923Z,7
2019-05-02T08:04:52.255Z,7
2019-05-02T08:05:54.344Z,6
2019-05-02T08:06:51.897Z,6
2019-05-02T08:07:55.142Z,7
2019-05-02T08:08:56.087Z,7
2019-05-02T08:09:53.144Z,7
2019-05-02T08:11:01.445Z,6
2019-05-02T08:11:52.130Z,6
2019-05-02T08:12:59.020Z,6
2019-05-02T08:14:00.325Z,6
2019-05-02T08:14:51.828Z,4
2019-05-02T08:15:52.385Z,3
2019-05-02T08:17:04.418Z,3
2019-05-02T08:17:53.699Z,3
2019-05-02T08:18:51.638Z,3
2019-05-02T08:19:52.630Z,3
2019-05-02T08:20:56.102Z,3
2019-05-02T08:21:51.546Z,3
2019-05-02T08:22:51.548Z,4
2019-05-02T08:23:57.224Z,5
2019-05-02T08:24:51.796Z,4
2019-05-02T08:25:55.167Z,4
2019-05-02T08:26:53.364Z,4
2019-05-02T08:27:53.751Z,4
2019-05-02T08:28:52.071Z,4
2019-05-02T08:29:51.575Z,4
2019-05-02T08:30:52.053Z,4
2019-05-02T08:31:51.746Z,4
2019-05-02T08:32:51.787Z,4
2019-05-02T08:33:51.797Z,4
2019-05-02T08:34:53.480Z,5
2019-05-02T08:35:52.026Z,5
2019-05-02T08:37:03.251Z,5
2019-05-02T08:37:56.073Z,4
2019-05-02T08:38:54.062Z,4
2019-05-02T08:39:52.215Z,4
2019-05-02T08:40:51.839Z,4
2019-05-02T08:41:56.416Z,3
2019-05-02T08:42:51.885Z,5
2019-05-02T08:43:54.159Z,5
2019-05-02T08:45:52.242Z,4
2019-05-02T08:46:53.856Z,4
2019-05-02T08:47:54.037Z,4
2019-05-02T08:48:54.404Z,4
2019-05-02T08:49:54.711Z,4
2019-05-02T08:50:51.827Z,4
2019-05-02T08:51:51.769Z,4
2019-05-02T08:52:51.775Z,3
2019-05-02T08:53:56.287Z,3
2019-05-02T08:54:52.471Z,5
2019-05-02T08:55:55.987Z,5
2019-05-02T08:56:53.434Z,5
2019-05-02T08:57:53.972Z,4
2019-05-02T08:58:51.975Z,4
2019-05-02T08:59:55.428Z,5
2019-05-02T09:00:51.872Z,5
2019-05-02T09:01:58.283Z,5
2019-05-02T09:03:02.686Z,5
2019-05-02T09:03:56.709Z,5
2019-05-02T09:04:58.284Z,5
2019-05-02T09:06:05.222Z,5
2019-05-02T09:06:53.267Z,3
2019-05-02T09:08:01.501Z,4
2019-05-02T09:08:59.935Z,4
2019-05-02T09:09:52.073Z,3
2019-05-02T09:10:52.507Z,6
2019-05-02T09:12:06.823Z,6
2019-05-02T09:12:52.130Z,5
2019-05-02T09:13:52.599Z,3
2019-05-02T09:14:52.149Z,3
2019-05-02T09:15:54.029Z,3
2019-05-02T09:16:52.388Z,4
2019-05-02T09:17:56.121Z,4
2019-05-02T09:18:54.088Z,4
2019-05-02T09:20:01.916Z,4
2019-05-02T09:20:56.191Z,4
2019-05-02T09:21:52.613Z,4
2019-05-02T09:22:55.828Z,4
2019-05-02T09:23:52.161Z,4
2019-05-02T09:24:52.193Z,4
2019-05-02T09:25:52.005Z,5
2019-05-02T09:26:51.997Z,4
2019-05-02T09:27:52.652Z,4
2019-05-02T09:28:51.812Z,4
2019-05-02T09:29:51.974Z,4
2019-05-02T09:30:57.224Z,4
2019-05-02T09:31:52.738Z,3
2019-05-02T09:32:52.210Z,3
2019-05-02T09:33:52.050Z,3
2019-05-02T09:34:51.883Z,3
2019-05-02T09:35:51.652Z,3
2019-05-02T09:36:52.981Z,3
2019-05-02T09:37:52.243Z,3
2019-05-02T09:38:55.899Z,4
2019-05-02T09:39:52.526Z,3
2019-05-02T09:40:54.917Z,3
2019-05-02T09:41:52.670Z,5
2019-05-02T09:42:53.263Z,3
2019-05-02T09:43:52.662Z,5
2019-05-02T09:44:55.423Z,6
2019-05-02T09:45:53.125Z,6
2019-05-02T09:46:56.577Z,5
2019-05-02T09:47:58.239Z,5
2019-05-02T09:48:52.029Z,4
2019-05-02T09:49:53.098Z,6
2019-05-02T09:50:52.834Z,6
2019-05-02T09:51:59.518Z,4
2019-05-02T09:52:52.487Z,4
2019-05-02T09:53:52.437Z,3
2019-05-02T09:54:55.904Z,3
2019-05-02T09:55:57.664Z,5
2019-05-02T09:56:52.510Z,5
2019-05-02T09:57:52.134Z,4
2019-05-02T09:58:55.082Z,3
2019-05-02T09:59:55.679Z,3
2019-05-02T10:00:52.502Z,3
2019-05-02T10:01:52.690Z,3
2019-05-02T10:02:52.374Z,3
2019-05-02T10:03:52.012Z,3
2019-05-02T10:04:56.086Z,3
2019-05-02T10:05:52.394Z,4
2019-05-02T10:06:52.602Z,4
2019-05-02T10:07:52.696Z,4
2019-05-02T10:08:52.154Z,4
2019-05-02T10:09:52.036Z,4
2019-05-02T10:10:52.226Z,3
2019-05-02T10:11:52.491Z,2
2019-05-02T10:12:52.182Z,2
2019-05-02T10:13:55.296Z,5
2019-05-02T10:14:52.770Z,5
2019-05-02T10:15:52.911Z,5
2019-05-02T10:16:52.950Z,7
2019-05-02T10:17:52.070Z,7
2019-05-02T10:18:52.565Z,7
2019-05-02T10:19:57.006Z,7
2019-05-02T10:20:53.599Z,5
2019-05-02T10:21:56.159Z,5
2019-05-02T10:22:53.622Z,5
2019-05-02T10:23:59.047Z,7
2019-05-02T10:24:52.843Z,7
2019-05-02T10:25:52.523Z,7
2019-05-02T10:26:55.235Z,6
2019-05-02T10:27:52.487Z,6
2019-05-02T10:28:53.392Z,6
2019-05-02T10:29:52.585Z,6
2019-05-02T10:30:56.498Z,6
2019-05-02T10:31:52.727Z,6
2019-05-02T10:32:57.125Z,6
2019-05-02T10:33:52.946Z,6
2019-05-02T10:34:55.647Z,6
2019-05-02T10:35:52.599Z,6
2019-05-02T10:36:58.769Z,6
2019-05-02T10:37:52.184Z,6
2019-05-02T10:38:54.800Z,6
2019-05-02T10:39:54.284Z,6
2019-05-02T10:40:54.786Z,6
2019-05-02T10:41:52.714Z,6
2019-05-02T10:42:52.377Z,5
2019-05-02T10:43:56.628Z,5
2019-05-02T10:44:52.215Z,5
2019-05-02T10:45:55.307Z,5
2019-05-02T10:46:52.370Z,6
2019-05-02T10:47:52.804Z,7
2019-05-02T10:48:52.611Z,6
2019-05-02T10:49:52.703Z,7
2019-05-02T10:50:52.590Z,6
2019-05-02T10:51:53.806Z,7
2019-05-02T10:52:52.678Z,7
2019-05-02T10:53:55.280Z,7
2019-05-02T10:54:52.815Z,5
2019-05-02T10:55:52.493Z,6
2019-05-02T10:56:51.963Z,5
2019-05-02T10:57:52.715Z,8
2019-05-02T10:58:52.406Z,8
2019-05-02T10:59:52.604Z,8
2019-05-02T11:00:52.460Z,10
2019-05-02T11:01:52.244Z,11
2019-05-02T11:02:52.553Z,8
2019-05-02T11:03:52.206Z,9
2019-05-02T11:04:52.533Z,9
2019-05-02T11:05:52.824Z,2
2019-05-02T11:06:51.931Z,2
2019-05-02T11:07:52.327Z,2
2019-05-02T11:08:52.513Z,2
2019-05-02T11:09:52.539Z,2
2019-05-02T11:10:52.702Z,2
2019-05-02T11:11:52.078Z,2
2019-05-02T11:12:56.137Z,2
2019-05-02T11:13:53.341Z,2
2019-05-02T11:14:51.883Z,2
2019-05-02T11:15:52.501Z,2
2019-05-02T11:16:52.472Z,2
2019-05-02T11:17:52.955Z,2
2019-05-02T11:18:52.555Z,3
2019-05-02T11:19:52.381Z,2
2019-05-02T11:20:52.383Z,4
2019-05-02T11:21:56.284Z,3
2019-05-02T11:22:54.373Z,2
2019-05-02T11:23:52.690Z,2
2019-05-02T11:24:52.400Z,2
2019-05-02T11:25:52.646Z,2
2019-05-02T11:26:52.855Z,2
2019-05-02T11:27:52.523Z,2
2019-05-02T11:28:52.223Z,2
2019-05-02T11:29:52.605Z,2
2019-05-02T11:30:52.438Z,2
2019-05-02T11:31:52.197Z,3
2019-05-02T11:32:52.374Z,3
2019-05-02T11:33:52.756Z,2
2019-05-02T11:34:52.540Z,5
2019-05-02T11:35:53.556Z,5
2019-05-02T11:36:52.651Z,3
2019-05-02T11:37:51.955Z,3
2019-05-02T11:38:59.570Z,4
2019-05-02T11:39:54.988Z,5
2019-05-02T11:40:52.172Z,5
2019-05-02T11:41:52.689Z,5
2019-05-02T11:42:52.188Z,4
2019-05-02T11:43:54.090Z,5
2019-05-02T11:44:52.414Z,4
2019-05-02T11:45:54.176Z,3
2019-05-02T11:46:52.153Z,3
2019-05-02T11:48:56.454Z,3
2019-05-02T11:49:55.772Z,3
2019-05-02T11:50:52.429Z,3
2019-05-02T11:51:55.782Z,3
2019-05-02T11:52:52.381Z,4
2019-05-02T11:53:52.733Z,2
2019-05-02T11:54:52.191Z,2
2019-05-02T11:55:53.163Z,2
2019-05-02T11:56:53.527Z,2
2019-05-02T11:57:52.402Z,2
2019-05-02T11:58:52.863Z,2
2019-05-02T11:59:52.135Z,2
2019-05-02T12:00:52.418Z,2
2019-05-02T12:01:59.713Z,2
2019-05-02T12:02:54.199Z,2
2019-05-02T12:03:52.547Z,2
2019-05-02T12:04:54.530Z,2
2019-05-02T12:05:52.518Z,3
2019-05-02T12:07:00.966Z,2
2019-05-02T12:07:52.670Z,2
2019-05-02T12:08:52.559Z,2
2019-05-02T12:09:56.853Z,3
2019-05-02T12:10:52.060Z,2
2019-05-02T12:11:56.404Z,3
2019-05-02T12:12:52.660Z,3
2019-05-02T12:13:56.787Z,2
2019-05-02T12:14:52.796Z,2
2019-05-02T12:15:52.080Z,2
2019-05-02T12:16:52.717Z,2
2019-05-02T12:17:51.904Z,2
2019-05-02T12:18:53.800Z,2
2019-05-02T12:19:52.396Z,2
2019-05-02T12:20:52.184Z,2
2019-05-02T12:21:52.874Z,2
2019-05-02T12:22:52.765Z,2
2019-05-02T12:23:52.735Z,2
2019-05-02T12:24:52.038Z,2
2019-05-02T12:25:52.117Z,2
2019-05-02T12:26:52.807Z,2
2019-05-02T12:27:52.708Z,2
2019-05-02T12:28:52.716Z,2
2019-05-02T12:29:57.496Z,2
2019-05-02T12:30:52.080Z,2
2019-05-02T12:31:55.367Z,2
2019-05-02T12:32:53.106Z,2
2019-05-02T12:33:53.428Z,2
2019-05-02T12:34:52.631Z,2
2019-05-02T12:35:52.459Z,2
2019-05-02T12:36:52.404Z,2
2019-05-02T12:37:55.177Z,2
2019-05-02T12:38:52.870Z,2
2019-05-02T12:39:51.905Z,2
2019-05-02T12:40:52.202Z,2
2019-05-02T12:41:53.754Z,2
2019-05-02T12:42:52.582Z,2
2019-05-02T12:43:52.518Z,2
2019-05-02T12:44:53.288Z,2
2019-05-02T12:45:52.794Z,2
2019-05-02T12:46:51.967Z,2
2019-05-02T12:47:52.355Z,2
2019-05-02T12:48:52.201Z,2
2019-05-02T12:49:52.083Z,2
2019-05-02T12:50:52.741Z,2
2019-05-02T12:51:52.577Z,2
2019-05-02T12:52:52.193Z,2
2019-05-02T12:53:52.778Z,2
2019-05-02T12:54:52.516Z,2
2019-05-02T12:55:52.687Z,2
2019-05-02T12:56:52.790Z,2
2019-05-02T12:57:52.385Z,3
2019-05-02T12:58:52.927Z,2
2019-05-02T12:59:52.487Z,2
2019-05-02T13:00:53.105Z,2
2019-05-02T13:01:52.043Z,2
2019-05-02T13:02:52.507Z,2
2019-05-02T13:03:52.331Z,2
2019-05-02T13:04:52.704Z,2
2019-05-02T13:05:52.191Z,2
2019-05-02T13:06:53.004Z,2
2019-05-02T13:07:55.401Z,3
2019-05-02T13:08:52.651Z,4
2019-05-02T13:09:52.686Z,2
2019-05-02T13:10:55.769Z,2
2019-05-02T13:11:52.378Z,3
2019-05-02T13:12:53.174Z,2
2019-05-02T13:13:53.319Z,2
2019-05-02T13:14:52.947Z,2
2019-05-02T13:15:51.991Z,2
2019-05-02T13:16:53.513Z,2
2019-05-02T13:17:52.195Z,3
2019-05-02T13:18:52.042Z,3
2019-05-02T13:19:57.119Z,2
2019-05-02T13:20:52.772Z,3
2019-05-02T13:21:58.241Z,2
2019-05-02T13:22:52.637Z,3
2019-05-02T13:23:51.891Z,2
2019-05-02T13:24:54.964Z,3
2019-05-02T13:25:51.916Z,4
2019-05-02T13:27:52.258Z,4
2019-05-02T13:28:51.907Z,2
2019-05-02T13:29:52.411Z,2
2019-05-02T13:30:51.924Z,2
2019-05-02T13:31:52.429Z,2
2019-05-02T13:32:53.848Z,2
2019-05-02T13:33:52.424Z,3
2019-05-02T13:34:54.130Z,3
2019-05-02T13:35:52.011Z,3
2019-05-02T13:36:52.054Z,3
2019-05-02T13:37:51.903Z,2
2019-05-02T13:38:52.004Z,2
2019-05-02T13:39:53.049Z,2
2019-05-02T13:40:51.910Z,2
2019-05-02T13:41:52.261Z,2
2019-05-02T13:42:52.356Z,2
2019-05-02T13:43:52.719Z,5
2019-05-02T13:44:52.685Z,5
2019-05-02T13:45:52.677Z,4
2019-05-02T13:46:53.579Z,4
2019-05-02T13:47:52.115Z,6
2019-05-02T13:48:56.396Z,6
2019-05-02T13:49:56.799Z,5
2019-05-02T13:50:52.027Z,5
2019-05-02T13:51:52.216Z,3
2019-05-02T13:52:57.702Z,2
2019-05-02T13:53:52.235Z,2
2019-05-02T13:54:52.318Z,2
2019-05-02T13:55:52.356Z,2
2019-05-02T13:56:52.811Z,2
2019-05-02T13:57:53.011Z,3
2019-05-02T13:58:52.005Z,3
2019-05-02T13:59:52.668Z,3
2019-05-02T14:00:52.872Z,3
2019-05-02T14:01:52.221Z,2
2019-05-02T14:02:52.052Z,3
2019-05-02T14:03:55.509Z,2
2019-05-02T14:04:52.264Z,2
2019-05-02T14:05:53.886Z,2
2019-05-02T14:06:52.823Z,2
2019-05-02T14:07:54.254Z,3
2019-05-02T14:08:53.335Z,3
2019-05-02T14:09:57.974Z,3
2019-05-02T14:10:54.095Z,3
2019-05-02T14:11:52.637Z,2
2019-05-02T14:12:52.842Z,2
2019-05-02T14:13:52.233Z,3
2019-05-02T14:14:52.039Z,4
2019-05-02T14:15:52.737Z,3
2019-05-02T14:16:53.005Z,2
2019-05-02T14:17:52.498Z,2
2019-05-02T14:18:52.999Z,2
2019-05-02T14:20:01.191Z,2
2019-05-02T14:20:52.681Z,2
2019-05-02T14:21:52.253Z,2
2019-05-02T14:22:52.689Z,2
2019-05-02T14:23:52.003Z,3
2019-05-02T14:24:52.036Z,3
2019-05-02T14:25:52.196Z,3
2019-05-02T14:26:52.581Z,3
2019-05-02T14:27:55.501Z,3
2019-05-02T14:28:53.271Z,3
2019-05-02T14:29:52.485Z,3
2019-05-02T14:30:52.605Z,3
2019-05-02T14:31:52.088Z,3
2019-05-02T14:32:52.392Z,3
2019-05-02T14:33:52.428Z,3
2019-05-02T14:34:52.490Z,3
2019-05-02T14:35:52.594Z,3
2019-05-02T14:36:54.354Z,2
2019-05-02T14:37:53.034Z,2
2019-05-02T14:38:52.498Z,2
2019-05-02T14:39:52.444Z,2
2019-05-02T14:40:52.151Z,2
2019-05-02T14:41:52.563Z,2
2019-05-02T14:42:52.961Z,2
2019-05-02T14:43:53.037Z,2
2019-05-02T14:45:07.270Z,2
2019-05-02T14:45:57.424Z,2
2019-05-02T14:46:52.367Z,2
2019-05-02T14:47:57.567Z,2
2019-05-02T14:48:52.536Z,3
2019-05-02T14:49:52.267Z,3
2019-05-02T14:50:52.203Z,3
2019-05-02T14:51:52.560Z,3
2019-05-02T14:52:51.950Z,2
2019-05-02T14:53:52.754Z,2
2019-05-02T14:54:52.529Z,2
2019-05-02T14:55:53.167Z,3
2019-05-02T14:56:52.312Z,2